Time;durP1;ratioP1;P1;durP2;ratioP2;P2;SDS_P1;SDS_P2;PMS_P1;PMS_P2;Temp;Humidity;BMP_temperature;BMP_pressure;BME280_temperature;BME280_humidity;BME280_pressure;Samples;Min_cycle;Max_cycle;Signal;HPM_P1;HPM_P2
2022/03/28 00:01:39;;;;;;;7.15;4.18;;;6.20;99.90;;;;;;5024765;28;20414;-65
2022/03/28 00:04:04;;;;;;;21.23;4.47;;;6.20;99.90;;;;;;4998617;28;20103;-66
2022/03/28 00:06:30;;;;;;;7.35;4.28;;;6.20;99.90;;;;;;5018094;28;20434;-66
2022/03/28 00:08:56;;;;;;;16.35;4.93;;;6.20;99.90;;;;;;5009462;28;20053;-66
2022/03/28 00:11:21;;;;;;;16.65;4.90;;;6.20;99.90;;;;;;5017920;28;20049;-66
2022/03/28 00:13:47;;;;;;;26.23;5.93;;;6.20;99.90;;;;;;5017755;28;20045;-66
2022/03/28 00:16:14;;;;;;;29.48;4.45;;;6.20;99.90;;;;;;5017707;28;20107;-65
2022/03/28 00:18:40;;;;;;;87.75;7.20;;;6.30;99.90;;;;;;5017309;28;20393;-66
2022/03/28 00:21:05;;;;;;;16.30;4.82;;;6.10;99.90;;;;;;5018122;28;20049;-65
2022/03/28 00:23:32;;;;;;;17.55;5.47;;;6.10;99.90;;;;;;5017975;28;20050;-66
2022/03/28 00:25:58;;;;;;;29.48;5.30;;;6.00;99.90;;;;;;5013837;28;20050;-65
2022/03/28 00:28:24;;;;;;;20.10;6.22;;;6.00;99.90;;;;;;5020437;28;20124;-66
2022/03/28 00:30:50;;;;;;;28.95;6.25;;;5.90;99.90;;;;;;5031760;28;20049;-65
2022/03/28 00:33:16;;;;;;;20.27;5.93;;;5.90;99.90;;;;;;5032335;28;20075;-65
2022/03/28 00:35:42;;;;;;;44.22;6.88;;;5.90;99.90;;;;;;5031063;28;20054;-67
2022/03/28 00:38:08;;;;;;;16.50;5.55;;;5.80;99.90;;;;;;5016354;28;20054;-65
2022/03/28 00:40:34;;;;;;;9.88;5.57;;;5.80;99.90;;;;;;5007262;28;20049;-67
2022/03/28 00:43:03;;;;;;;15.48;5.18;;;5.80;99.90;;;;;;5015711;28;20045;-67
2022/03/28 00:45:32;;;;;;;16.58;6.38;;;5.90;99.90;;;;;;5024111;28;20473;-66
2022/03/28 00:47:59;;;;;;;23.10;5.93;;;5.90;99.90;;;;;;5017572;28;20117;-66
2022/03/28 00:50:26;;;;;;;17.02;6.05;;;5.90;99.90;;;;;;5017371;28;20053;-66
2022/03/28 00:52:51;;;;;;;18.88;5.32;;;5.90;99.90;;;;;;5035532;28;20084;-66
2022/03/28 00:55:17;;;;;;;19.45;6.20;;;5.80;99.90;;;;;;5034037;28;20080;-66
2022/03/28 00:57:43;;;;;;;33.58;6.95;;;5.90;99.90;;;;;;5016355;28;20049;-66
2022/03/28 01:00:10;;;;;;;25.35;7.18;;;5.90;99.90;;;;;;5022184;28;20080;-65
2022/03/28 01:02:36;;;;;;;17.02;6.55;;;5.90;99.90;;;;;;5026727;28;20049;-66
2022/03/28 01:05:02;;;;;;;15.10;6.03;;;5.80;99.90;;;;;;5029138;28;20061;-66
2022/03/28 01:07:28;;;;;;;25.77;6.88;;;5.80;99.90;;;;;;4996402;28;20077;-66
2022/03/28 01:09:56;;;;;;;22.33;6.57;;;5.80;99.90;;;;;;5009817;28;20049;-67
2022/03/28 01:12:24;;;;;;;17.27;6.70;;;5.80;99.90;;;;;;5008112;28;20050;-67
2022/03/28 01:14:51;;;;;;;19.50;7.28;;;5.80;99.90;;;;;;5023546;28;20060;-67
2022/03/28 01:20:01;;;;;;;41.83;7.68;;;5.90;99.90;;;;;;5017515;28;20141;-67
2022/03/28 01:22:26;;;;;;;23.30;7.68;;;5.90;99.90;;;;;;5011401;28;20129;-66
2022/03/28 01:24:52;;;;;;;24.45;8.07;;;5.90;99.90;;;;;;5018917;28;20091;-66
2022/03/28 01:27:20;;;;;;;22.25;7.20;;;5.90;99.90;;;;;;5014871;28;20061;-66
2022/03/28 01:29:46;;;;;;;31.63;9.20;;;5.90;99.90;;;;;;5028074;28;20041;-67
2022/03/28 01:32:11;;;;;;;16.73;7.10;;;5.90;99.90;;;;;;5001788;28;20104;-66
2022/03/28 01:34:38;;;;;;;27.77;7.72;;;5.80;99.90;;;;;;5028873;28;20053;-67
2022/03/28 01:37:04;;;;;;;40.53;9.30;;;5.90;99.90;;;;;;5032477;28;20100;-66
2022/03/28 01:39:31;;;;;;;28.08;8.02;;;5.90;99.90;;;;;;5004915;28;20406;-66
2022/03/28 01:41:57;;;;;;;27.40;8.27;;;5.90;99.90;;;;;;4995749;28;20136;-66
2022/03/28 01:44:23;;;;;;;21.77;8.10;;;5.90;99.90;;;;;;5025673;28;20132;-67
2022/03/28 01:46:49;;;;;;;66.72;9.05;;;5.90;99.90;;;;;;5033414;28;20045;-67
2022/03/28 01:49:16;;;;;;;33.35;8.98;;;5.90;99.90;;;;;;5026231;28;20056;-66
2022/03/28 01:51:42;;;;;;;34.50;8.48;;;5.90;99.90;;;;;;5003860;28;20089;-66
2022/03/28 01:54:09;;;;;;;29.38;8.20;;;5.80;99.90;;;;;;5013951;28;20057;-66
2022/03/28 01:56:36;;;;;;;23.53;7.17;;;5.80;99.90;;;;;;4979939;28;1015720;-66
2022/03/28 01:59:03;;;;;;;76.97;10.25;;;5.90;99.90;;;;;;5025277;28;20060;-66
2022/03/28 02:01:28;;;;;;;27.67;8.88;;;5.80;99.90;;;;;;5015099;28;20123;-67
2022/03/28 02:03:54;;;;;;;57.60;10.90;;;5.80;99.90;;;;;;4997554;28;20080;-66
2022/03/28 02:06:20;;;;;;;67.22;10.32;;;5.80;99.90;;;;;;5009718;28;20053;-67
2022/03/28 02:08:45;;;;;;;47.38;9.95;;;5.80;99.90;;;;;;5019073;28;20049;-66
2022/03/28 02:11:11;;;;;;;43.58;8.93;;;5.80;99.90;;;;;;4996246;28;20049;-66
2022/03/28 02:13:37;;;;;;;62.10;11.75;;;5.70;99.90;;;;;;5026122;28;20045;-66
2022/03/28 02:16:03;;;;;;;39.25;10.32;;;5.80;99.90;;;;;;5015876;28;20468;-66
2022/03/28 02:18:29;;;;;;;88.82;12.85;;;5.80;99.90;;;;;;5032947;28;20124;-66
2022/03/28 02:20:54;;;;;;;54.72;9.80;;;5.80;99.90;;;;;;5033141;28;20129;-66
2022/03/28 02:23:23;;;;;;;56.47;12.05;;;5.80;99.90;;;;;;5014632;28;20080;-67
2022/03/28 02:25:48;;;;;;;64.78;11.05;;;5.90;99.90;;;;;;5010592;28;20061;-67
2022/03/28 02:28:14;;;;;;;61.83;13.00;;;5.80;99.90;;;;;;5021230;28;20042;-67
2022/03/28 02:30:42;;;;;;;41.92;10.60;;;5.90;99.90;;;;;;5031497;28;20087;-66
2022/03/28 02:33:08;;;;;;;67.40;11.77;;;5.90;99.90;;;;;;4995790;28;20468;-66
2022/03/28 02:35:34;;;;;;;57.88;12.95;;;5.80;99.90;;;;;;4996048;28;20054;-67
2022/03/28 02:38:03;;;;;;;80.90;12.27;;;5.90;99.90;;;;;;5031415;28;20056;-66
2022/03/28 02:40:29;;;;;;;154.60;17.80;;;5.90;99.90;;;;;;5014380;28;20478;-66
2022/03/28 02:42:58;;;;;;;94.50;14.05;;;5.80;99.90;;;;;;5032527;28;20049;-66
2022/03/28 02:45:25;;;;;;;111.75;15.10;;;5.90;99.90;;;;;;5000643;28;20199;-68
2022/03/28 02:47:51;;;;;;;101.32;15.55;;;5.90;99.90;;;;;;4995356;28;20056;-67
2022/03/28 02:50:16;;;;;;;116.10;15.68;;;5.90;99.90;;;;;;5028762;28;20045;-66
2022/03/28 02:52:42;;;;;;;138.45;16.60;;;5.90;99.90;;;;;;5015524;28;20467;-66
2022/03/28 02:55:08;;;;;;;125.90;16.08;;;5.90;99.90;;;;;;5013211;28;20065;-66
2022/03/28 02:57:34;;;;;;;119.68;16.77;;;5.90;99.90;;;;;;5012119;28;20582;-66
2022/03/28 03:00:04;;;;;;;124.28;16.42;;;6.00;99.90;;;;;;5022543;28;20045;-66
2022/03/28 03:02:29;;;;;;;116.75;17.45;;;5.90;99.90;;;;;;4996528;28;20509;-65
2022/03/28 03:04:55;;;;;;;83.43;13.65;;;6.00;99.90;;;;;;5028319;28;20050;-66
2022/03/28 03:07:20;;;;;;;83.50;14.80;;;6.00;99.90;;;;;;4996168;28;20081;-66
2022/03/28 03:09:47;;;;;;;53.97;14.07;;;6.00;99.90;;;;;;5012074;28;20045;-66
2022/03/28 03:12:13;;;;;;;97.03;14.98;;;6.10;99.90;;;;;;4995936;28;20092;-65
2022/03/28 03:14:38;;;;;;;144.10;19.63;;;6.10;99.90;;;;;;5014954;28;20111;-66
2022/03/28 03:17:04;;;;;;;92.65;14.85;;;6.10;99.90;;;;;;5014337;28;20100;-67
2022/03/28 03:19:30;;;;;;;101.97;16.45;;;6.00;99.90;;;;;;5027320;28;20156;-66
2022/03/28 03:21:56;;;;;;;133.75;18.83;;;6.00;99.90;;;;;;4994504;28;20091;-65
2022/03/28 03:24:21;;;;;;;137.40;17.90;;;6.00;99.90;;;;;;4995827;28;20093;-65
2022/03/28 03:26:47;;;;;;;76.60;13.75;;;6.00;99.90;;;;;;5026261;28;20557;-65
2022/03/28 03:29:12;;;;;;;100.32;17.88;;;6.00;99.90;;;;;;5021717;28;20097;-65
2022/03/28 03:31:39;;;;;;;109.65;17.65;;;6.10;99.90;;;;;;5014023;28;20061;-65
2022/03/28 03:34:05;;;;;;;69.57;15.80;;;6.00;99.90;;;;;;5012346;28;20052;-66
2022/03/28 03:36:31;;;;;;;77.82;17.48;;;6.00;99.90;;;;;;4999326;28;20410;-65
2022/03/28 03:38:56;;;;;;;63.10;13.65;;;6.00;99.90;;;;;;5020592;28;20055;-67
2022/03/28 03:41:22;;;;;;;61.00;14.05;;;6.00;99.90;;;;;;5036392;28;20041;-66
2022/03/28 03:43:48;;;;;;;51.33;13.30;;;6.10;99.90;;;;;;5018454;28;20057;-65
2022/03/28 03:46:13;;;;;;;39.00;13.48;;;6.10;99.90;;;;;;5034828;28;20551;-66
2022/03/28 03:48:39;;;;;;;73.20;15.23;;;6.10;99.90;;;;;;5033334;28;20474;-65
2022/03/28 03:51:05;;;;;;;66.93;14.43;;;6.10;99.90;;;;;;5018526;28;20394;-66
2022/03/28 03:53:30;;;;;;;31.10;13.55;;;6.10;99.90;;;;;;5034170;28;20502;-65
2022/03/28 03:55:56;;;;;;;56.80;15.13;;;6.10;99.90;;;;;;5034836;28;20080;-66
2022/03/28 03:58:21;;;;;;;35.70;12.95;;;6.10;99.90;;;;;;5015597;28;20496;-65
2022/03/28 04:00:47;;;;;;;47.83;13.43;;;6.10;99.90;;;;;;5014320;28;20505;-65
2022/03/28 04:03:13;;;;;;;87.60;14.52;;;6.00;99.90;;;;;;5034793;28;20049;-65
2022/03/28 04:05:38;;;;;;;69.15;13.00;;;6.10;99.90;;;;;;5017991;28;20061;-65
2022/03/28 04:08:05;;;;;;;50.53;13.57;;;6.00;99.90;;;;;;5034493;28;20401;-66
2022/03/28 04:10:32;;;;;;;45.53;14.18;;;6.00;99.90;;;;;;5018582;28;20037;-65
2022/03/28 04:12:57;;;;;;;51.75;12.50;;;6.00;99.90;;;;;;5035427;28;20064;-66
2022/03/28 04:15:23;;;;;;;47.72;14.15;;;5.90;99.90;;;;;;5030491;28;20045;-66
2022/03/28 04:17:49;;;;;;;41.60;13.38;;;5.90;99.90;;;;;;5017787;28;20059;-65
2022/03/28 04:20:15;;;;;;;52.35;14.52;;;5.90;99.90;;;;;;5035937;28;20151;-65
2022/03/28 04:22:42;;;;;;;62.05;14.93;;;5.90;99.90;;;;;;5004686;28;20060;-65
2022/03/28 04:25:09;;;;;;;39.25;13.00;;;5.90;99.90;;;;;;5033633;28;20416;-66
2022/03/28 04:27:36;;;;;;;72.15;16.00;;;5.90;99.90;;;;;;5018372;28;20064;-65
2022/03/28 04:30:10;;;;;;;87.63;15.48;;;5.90;99.90;;;;;;5033958;28;20401;-66
2022/03/28 04:32:36;;;;;;;94.85;16.27;;;5.90;99.90;;;;;;5034606;28;20049;-65
2022/03/28 04:35:03;;;;;;;44.25;13.05;;;5.90;99.90;;;;;;5008208;28;20054;-66
2022/03/28 04:37:34;;;;;;;75.70;14.43;;;5.80;99.90;;;;;;5018857;28;20060;-66
2022/03/28 04:40:00;;;;;;;67.07;15.32;;;5.80;99.90;;;;;;5034035;28;20042;-66
2022/03/28 04:42:25;;;;;;;54.38;14.32;;;5.80;99.90;;;;;;5028733;28;20092;-65
2022/03/28 04:44:51;;;;;;;50.03;14.00;;;5.80;99.90;;;;;;5029701;28;20053;-66
2022/03/28 04:47:17;;;;;;;85.55;14.20;;;5.80;99.90;;;;;;5015254;28;20053;-66
2022/03/28 04:49:42;;;;;;;25.00;12.25;;;5.90;99.90;;;;;;4998843;28;20076;-66
2022/03/28 04:52:08;;;;;;;34.70;13.52;;;5.90;99.90;;;;;;5015314;28;20050;-66
2022/03/28 04:54:36;;;;;;;32.05;13.23;;;5.80;99.90;;;;;;4997993;28;20058;-65
2022/03/28 04:57:05;;;;;;;35.22;14.23;;;5.80;99.90;;;;;;5014731;28;20450;-65
2022/03/28 04:59:32;;;;;;;23.95;12.38;;;5.70;99.90;;;;;;5020238;28;20547;-66
2022/03/28 05:01:58;;;;;;;30.25;13.10;;;5.70;99.90;;;;;;5032560;28;20390;-65
2022/03/28 05:04:24;;;;;;;21.13;13.38;;;5.70;99.90;;;;;;5021678;28;20054;-65
2022/03/28 05:06:49;;;;;;;21.90;12.20;;;5.70;99.90;;;;;;4999797;28;20057;-66
2022/03/28 05:09:16;;;;;;;22.77;12.48;;;5.70;99.90;;;;;;5007611;28;20057;-66
2022/03/28 05:11:42;;;;;;;35.78;13.82;;;5.60;99.90;;;;;;5011635;28;20085;-65
2022/03/28 05:14:08;;;;;;;21.77;13.45;;;5.60;99.90;;;;;;5028801;28;20500;-65
2022/03/28 05:16:34;;;;;;;23.05;13.25;;;5.50;99.90;;;;;;5014915;28;20073;-65
2022/03/28 05:18:59;;;;;;;24.85;13.63;;;5.50;99.90;;;;;;5044836;28;20063;-66
2022/03/28 05:21:25;;;;;;;31.10;12.23;;;5.60;99.90;;;;;;5036154;28;20515;-65
2022/03/28 05:23:51;;;;;;;22.33;13.07;;;5.50;99.90;;;;;;5034753;28;20418;-64
2022/03/28 05:26:26;;;;;;;22.63;13.35;;;5.50;99.90;;;;;;5021396;28;20050;-65
2022/03/28 05:28:53;;;;;;;23.33;13.70;;;5.50;99.90;;;;;;4988756;28;20068;-66
2022/03/28 05:31:19;;;;;;;21.90;13.00;;;5.50;99.90;;;;;;5028692;28;20046;-65
2022/03/28 05:33:47;;;;;;;25.70;13.88;;;5.50;99.90;;;;;;5016381;28;20053;-65
2022/03/28 05:36:22;;;;;;;21.90;13.27;;;5.50;99.90;;;;;;5006731;28;20050;-65
2022/03/28 05:38:48;;;;;;;22.55;12.43;;;5.50;99.90;;;;;;5024706;28;20501;-65
2022/03/28 05:41:13;;;;;;;22.25;12.57;;;5.50;99.90;;;;;;5006073;28;20092;-65
2022/03/28 05:43:39;;;;;;;20.65;13.00;;;5.50;99.90;;;;;;5033442;28;20060;-65
2022/03/28 05:46:05;;;;;;;20.17;12.07;;;5.50;99.90;;;;;;5033404;28;20053;-65
2022/03/28 05:48:32;;;;;;;24.52;12.15;;;5.50;99.90;;;;;;5031922;28;20049;-65
2022/03/28 05:51:02;;;;;;;19.58;11.75;;;5.60;99.90;;;;;;5016430;28;20057;-66
2022/03/28 05:53:32;;;;;;;17.80;11.50;;;5.60;99.90;;;;;;5007825;28;20053;-64
2022/03/28 05:56:03;;;;;;;17.55;11.30;;;5.60;99.90;;;;;;5011623;28;20050;-64
2022/03/28 05:58:33;;;;;;;19.20;12.10;;;5.60;99.90;;;;;;5004422;28;20503;-65
2022/03/28 06:01:02;;;;;;;20.60;12.35;;;5.60;99.90;;;;;;4999282;28;20049;-65
2022/03/28 06:03:32;;;;;;;22.30;11.18;;;5.70;99.90;;;;;;5004673;28;20060;-64
2022/03/28 06:05:59;;;;;;;22.92;11.40;;;5.70;99.90;;;;;;5010875;28;20175;-66
2022/03/28 06:08:25;;;;;;;20.63;10.45;;;5.90;99.90;;;;;;5009041;28;20184;-67
2022/03/28 06:10:51;;;;;;;16.52;10.05;;;5.60;99.90;;;;;;5016213;28;20132;-66
2022/03/28 06:13:18;;;;;;;24.73;9.70;;;5.70;99.90;;;;;;4995820;28;20058;-66
2022/03/28 06:15:44;;;;;;;16.48;10.57;;;5.60;99.90;;;;;;5011035;28;20053;-65
2022/03/28 06:18:09;;;;;;;28.38;10.40;;;5.70;99.90;;;;;;4996141;28;20047;-65
2022/03/28 06:20:35;;;;;;;16.38;9.13;;;5.70;99.90;;;;;;4996367;28;20104;-64
2022/03/28 06:23:02;;;;;;;28.48;10.35;;;5.70;99.90;;;;;;5027189;28;20045;-65
2022/03/28 06:25:29;;;;;;;13.63;9.20;;;5.60;99.90;;;;;;5016159;28;20057;-65
2022/03/28 06:27:55;;;;;;;16.40;10.32;;;5.60;99.90;;;;;;5032474;28;20049;-65
2022/03/28 06:30:20;;;;;;;22.27;8.82;;;5.60;99.90;;;;;;5033354;28;20041;-66
2022/03/28 06:32:46;;;;;;;49.58;10.27;;;5.70;99.90;;;;;;5015214;28;20445;-66
2022/03/28 06:35:12;;;;;;;21.50;9.13;;;5.70;99.90;;;;;;5033526;28;20046;-65
2022/03/28 06:37:37;;;;;;;26.58;9.32;;;5.60;99.90;;;;;;5033581;28;20057;-65
2022/03/28 06:40:04;;;;;;;23.05;9.65;;;5.50;99.90;;;;;;5014950;28;20413;-65
2022/03/28 06:42:32;;;;;;;15.25;8.45;;;5.60;99.90;;;;;;5031684;28;20096;-65
2022/03/28 06:44:58;;;;;;;12.85;8.38;;;5.60;99.90;;;;;;5015568;28;20045;-65
2022/03/28 06:47:24;;;;;;;19.50;8.63;;;5.60;99.90;;;;;;5032557;28;20054;-65
2022/03/28 06:49:49;;;;;;;17.17;8.82;;;5.60;99.90;;;;;;5032744;28;20429;-66
2022/03/28 06:52:15;;;;;;;18.67;8.60;;;5.60;99.90;;;;;;5033465;28;20132;-66
2022/03/28 06:54:41;;;;;;;25.48;10.15;;;5.60;99.90;;;;;;5032194;28;20153;-65
2022/03/28 06:57:06;;;;;;;16.05;9.07;;;5.70;99.90;;;;;;5013383;28;20405;-65
2022/03/28 06:59:32;;;;;;;42.00;9.90;;;5.70;99.90;;;;;;5031466;28;20060;-66
2022/03/28 07:01:57;;;;;;;20.30;9.70;;;5.70;99.90;;;;;;5014606;28;20065;-65
2022/03/28 07:04:24;;;;;;;16.95;8.68;;;5.80;99.90;;;;;;5033074;28;20053;-65
2022/03/28 07:06:50;;;;;;;16.00;8.85;;;5.80;99.90;;;;;;5032508;28;20080;-65
2022/03/28 07:09:15;;;;;;;15.15;8.40;;;5.80;99.90;;;;;;5032713;28;20053;-65
2022/03/28 07:11:41;;;;;;;18.42;9.40;;;5.80;99.90;;;;;;5029942;28;20115;-66
2022/03/28 07:14:07;;;;;;;18.17;9.40;;;5.80;99.90;;;;;;5016271;28;20049;-65
2022/03/28 07:16:36;;;;;;;19.80;9.52;;;5.90;99.90;;;;;;5015487;28;20446;-66
2022/03/28 07:19:01;;;;;;;18.00;9.38;;;5.90;99.90;;;;;;5015113;28;20049;-65
2022/03/28 07:21:27;;;;;;;15.00;9.35;;;5.90;99.90;;;;;;5014568;28;20050;-66
2022/03/28 07:23:53;;;;;;;19.63;9.48;;;5.90;99.90;;;;;;5015476;28;20049;-65
2022/03/28 07:26:20;;;;;;;16.30;9.73;;;5.90;99.90;;;;;;5031835;28;20056;-66
2022/03/28 07:28:46;;;;;;;15.70;7.93;;;5.90;99.90;;;;;;5003315;28;20057;-67
2022/03/28 07:31:12;;;;;;;15.40;9.25;;;5.90;99.90;;;;;;5031921;28;20473;-66
2022/03/28 07:33:39;;;;;;;17.67;9.45;;;5.90;99.90;;;;;;5031064;28;20092;-65
2022/03/28 07:36:05;;;;;;;17.38;7.88;;;5.90;99.90;;;;;;5032591;28;20056;-65
2022/03/28 07:38:30;;;;;;;13.32;7.55;;;5.80;99.90;;;;;;5015016;28;20056;-65
2022/03/28 07:40:56;;;;;;;15.05;8.02;;;5.80;99.90;;;;;;5014835;28;20053;-66
2022/03/28 07:43:22;;;;;;;16.20;8.32;;;5.70;99.90;;;;;;5014335;28;20627;-66
2022/03/28 07:45:50;;;;;;;19.20;9.35;;;5.70;99.90;;;;;;5032606;28;20422;-66
2022/03/28 07:48:16;;;;;;;16.15;8.68;;;5.80;99.90;;;;;;5032855;28;20056;-66
2022/03/28 07:50:41;;;;;;;16.38;9.00;;;5.80;99.90;;;;;;5014599;28;20049;-66
2022/03/28 07:53:07;;;;;;;18.38;8.80;;;5.80;99.90;;;;;;5032815;28;20053;-66
2022/03/28 07:55:33;;;;;;;18.63;9.38;;;5.80;99.90;;;;;;5032678;28;20494;-65
2022/03/28 07:58:02;;;;;;;17.23;9.43;;;5.90;99.90;;;;;;5031614;28;20509;-66
2022/03/28 08:00:29;;;;;;;19.05;9.27;;;6.00;99.90;;;;;;5016432;28;20076;-66
2022/03/28 08:02:55;;;;;;;17.40;9.85;;;6.10;99.90;;;;;;4988023;28;20050;-66
2022/03/28 08:05:21;;;;;;;17.60;9.27;;;6.20;99.90;;;;;;4999226;28;20050;-66
2022/03/28 08:07:49;;;;;;;19.02;9.68;;;6.20;99.90;;;;;;5029609;28;20103;-67
2022/03/28 08:10:14;;;;;;;19.90;10.48;;;6.30;99.90;;;;;;5029460;28;20124;-67
2022/03/28 08:12:43;;;;;;;19.23;9.82;;;6.30;99.90;;;;;;5013358;28;20053;-67
2022/03/28 08:15:11;;;;;;;19.58;9.63;;;6.30;99.90;;;;;;5035660;28;20067;-67
2022/03/28 08:17:38;;;;;;;19.50;10.48;;;6.30;99.90;;;;;;5029551;28;20048;-66
2022/03/28 08:20:09;;;;;;;19.75;9.50;;;6.30;99.90;;;;;;5033584;28;20046;-65
2022/03/28 08:22:36;;;;;;;18.58;8.85;;;6.40;99.90;;;;;;5035395;28;20059;-66
2022/03/28 08:25:02;;;;;;;14.82;8.10;;;6.50;99.90;;;;;;5035070;28;20085;-66
2022/03/28 08:27:27;;;;;;;12.93;7.28;;;6.50;99.90;;;;;;5017101;28;20402;-65
2022/03/28 08:29:53;;;;;;;15.18;8.02;;;6.50;99.90;;;;;;5017451;28;20053;-66
2022/03/28 08:32:18;;;;;;;12.25;6.68;;;6.50;99.90;;;;;;5033514;28;20152;-66
2022/03/28 08:34:48;;;;;;;11.65;5.55;;;6.60;99.90;;;;;;5018016;28;20270;-65
2022/03/28 08:37:17;;;;;;;12.55;6.20;;;6.60;99.90;;;;;;5035703;28;20516;-66
2022/03/28 08:39:44;;;;;;;10.25;6.18;;;6.70;99.90;;;;;;5018095;28;20316;-66
2022/03/28 08:42:12;;;;;;;9.57;5.13;;;6.80;99.90;;;;;;5033182;28;20045;-66
2022/03/28 08:44:41;;;;;;;7.15;4.75;;;6.90;99.90;;;;;;5000830;28;20037;-65
2022/03/28 08:47:09;;;;;;;6.55;3.75;;;6.90;99.90;;;;;;5035629;28;20057;-66
2022/03/28 08:49:36;;;;;;;5.40;3.58;;;6.90;99.90;;;;;;5034058;28;20053;-66
2022/03/28 08:52:02;;;;;;;4.95;3.50;;;6.90;99.90;;;;;;5017674;28;20548;-66
2022/03/28 08:54:28;;;;;;;7.75;4.32;;;7.00;99.90;;;;;;5034853;28;20053;-64
2022/03/28 08:56:54;;;;;;;8.98;4.22;;;7.10;99.90;;;;;;5016728;28;20054;-66
2022/03/28 08:59:19;;;;;;;5.28;4.15;;;7.20;99.90;;;;;;5034603;28;20462;-65
2022/03/28 09:01:45;;;;;;;7.38;4.57;;;7.30;99.90;;;;;;5040784;28;20055;-66
2022/03/28 09:04:14;;;;;;;5.28;4.00;;;7.30;99.90;;;;;;5036785;28;20053;-67
2022/03/28 09:06:42;;;;;;;5.75;3.90;;;7.40;99.90;;;;;;5046924;28;20045;-66
2022/03/28 09:09:10;;;;;;;5.40;3.78;;;7.40;99.90;;;;;;5034839;28;20528;-66
2022/03/28 09:11:36;;;;;;;6.30;4.20;;;7.50;99.90;;;;;;5034706;28;20103;-65
2022/03/28 09:14:02;;;;;;;6.97;4.30;;;7.50;99.90;;;;;;5033655;28;20107;-65
2022/03/28 09:16:31;;;;;;;6.15;4.68;;;7.50;99.90;;;;;;5031628;28;20033;-66
2022/03/28 09:18:57;;;;;;;8.10;4.80;;;7.50;99.90;;;;;;5033699;28;20123;-66
2022/03/28 09:21:25;;;;;;;8.65;4.85;;;7.60;99.90;;;;;;5012554;28;20478;-66
2022/03/28 09:23:52;;;;;;;6.25;4.32;;;7.70;99.90;;;;;;5034286;28;20103;-65
2022/03/28 09:26:23;;;;;;;6.38;4.70;;;7.80;99.90;;;;;;5034656;28;20500;-65
2022/03/28 09:29:00;;;;;;;7.57;5.40;;;7.80;99.90;;;;;;5033017;28;20061;-65
2022/03/28 09:31:40;;;;;;;6.93;4.63;;;7.90;99.90;;;;;;5016003;28;20065;-66
2022/03/28 09:34:13;;;;;;;9.05;4.97;;;8.10;99.90;;;;;;5033115;28;20111;-65
2022/03/28 09:36:52;;;;;;;7.57;5.80;;;8.20;99.90;;;;;;5017219;28;20096;-66
2022/03/28 09:39:19;;;;;;;8.00;6.05;;;8.30;99.90;;;;;;5017399;28;20386;-66
2022/03/28 09:42:07;;;;;;;9.48;6.15;;;8.20;99.90;;;;;;5033767;28;20088;-66
2022/03/28 09:44:36;;;;;;;8.73;6.15;;;8.20;99.90;;;;;;5016013;28;20489;-66
2022/03/28 09:47:22;;;;;;;8.70;6.47;;;8.30;99.90;;;;;;5033805;28;20106;-65
2022/03/28 09:49:52;;;;;;;7.70;6.00;;;8.20;99.90;;;;;;5014869;28;20128;-66
2022/03/28 09:52:21;;;;;;;9.55;6.05;;;8.20;99.90;;;;;;5013174;28;20056;-66
2022/03/28 09:54:55;;;;;;;9.65;6.47;;;8.30;99.90;;;;;;5017245;28;20092;-65
2022/03/28 09:57:33;;;;;;;8.52;6.10;;;8.40;99.90;;;;;;5014445;28;20083;-65
2022/03/28 10:00:14;;;;;;;8.82;5.88;;;8.50;99.90;;;;;;5030946;28;20137;-65
2022/03/28 10:02:40;;;;;;;7.40;5.53;;;8.70;99.90;;;;;;5014362;28;20050;-66
2022/03/28 10:05:06;;;;;;;8.10;5.97;;;8.80;99.90;;;;;;4997291;28;20315;-65
2022/03/28 10:07:32;;;;;;;6.28;5.40;;;8.70;99.90;;;;;;5028228;28;20037;-65
2022/03/28 10:09:58;;;;;;;7.80;6.05;;;8.70;99.90;;;;;;5011372;28;20069;-65
2022/03/28 10:12:25;;;;;;;8.90;5.82;;;8.80;99.90;;;;;;5030223;28;20513;-65
2022/03/28 10:14:58;;;;;;;9.13;6.13;;;8.90;99.90;;;;;;5033396;28;20059;-65
2022/03/28 10:17:25;;;;;;;9.20;6.00;;;9.00;99.90;;;;;;5012647;28;20129;-65
2022/03/28 10:19:52;;;;;;;8.20;6.13;;;9.00;99.90;;;;;;5015060;28;20053;-65
2022/03/28 10:22:26;;;;;;;9.77;6.65;;;9.00;99.90;;;;;;5013092;28;20056;-66
2022/03/28 10:24:53;;;;;;;9.13;6.78;;;8.90;99.90;;;;;;4998696;28;20528;-66
2022/03/28 10:27:19;;;;;;;8.82;6.53;;;8.80;99.90;;;;;;5032544;28;20069;-65
2022/03/28 10:29:45;;;;;;;8.13;5.97;;;8.70;99.90;;;;;;5016029;28;20077;-65
2022/03/28 10:32:20;;;;;;;9.82;7.38;;;8.80;99.90;;;;;;5014215;28;20060;-65
2022/03/28 10:34:56;;;;;;;7.30;6.15;;;8.90;99.90;;;;;;5005872;28;20054;-65
2022/03/28 10:37:32;;;;;;;9.35;6.82;;;9.10;99.90;;;;;;5022331;28;20048;-65
2022/03/28 10:40:29;;;;;;;9.02;6.45;;;9.40;99.90;;;;;;5031513;28;20046;-65
2022/03/28 10:43:13;;;;;;;8.50;6.35;;;9.50;99.90;;;;;;5011848;28;20056;-65
2022/03/28 10:45:51;;;;;;;10.80;6.65;;;9.40;99.90;;;;;;5012818;28;20089;-65
2022/03/28 10:48:34;;;;;;;8.65;6.78;;;9.40;99.90;;;;;;5014600;28;20049;-65
2022/03/28 10:51:14;;;;;;;7.85;6.25;;;9.50;99.90;;;;;;5031323;28;20084;-65
2022/03/28 10:53:47;;;;;;;8.48;6.70;;;9.60;99.90;;;;;;5030975;28;20559;-65
2022/03/28 10:56:33;;;;;;;9.32;6.43;;;9.80;99.90;;;;;;5032466;28;20085;-65
2022/03/28 10:59:11;;;;;;;11.02;7.45;;;9.70;99.90;;;;;;5017050;28;20127;-65
2022/03/28 11:01:41;;;;;;;10.18;6.60;;;10.00;99.90;;;;;;5030801;28;20228;-65
2022/03/28 11:04:19;;;;;;;10.15;7.43;;;10.00;99.90;;;;;;5018830;28;20093;-64
2022/03/28 11:06:49;;;;;;;11.05;7.45;;;10.00;99.90;;;;;;5021609;28;20052;-65
2022/03/28 11:09:34;;;;;;;10.48;7.47;;;10.10;99.90;;;;;;5023676;28;20061;-65
2022/03/28 11:12:12;;;;;;;12.50;7.85;;;10.30;99.90;;;;;;5029650;28;20049;-65
2022/03/28 11:14:50;;;;;;;9.43;7.50;;;10.20;99.90;;;;;;5015064;28;20053;-64
2022/03/28 11:17:18;;;;;;;11.00;8.10;;;10.30;99.90;;;;;;5013839;28;20045;-65
2022/03/28 11:20:11;;;;;;;8.80;7.22;;;10.40;99.90;;;;;;4996101;28;20056;-65
2022/03/28 11:22:38;;;;;;;;;;;10.60;99.90;;;;;;5012306;28;20049;-65
2022/03/28 11:25:29;;;;;;;10.43;7.68;;;10.80;99.90;;;;;;5011673;28;19963;-65
2022/03/28 11:28:05;;;;;;;9.85;7.07;;;10.70;99.90;;;;;;5012470;28;20080;-65
2022/03/28 11:30:35;;;;;;;10.75;7.75;;;10.90;99.90;;;;;;5012877;28;20191;-66
2022/03/28 11:33:07;;;;;;;9.85;7.45;;;11.10;99.90;;;;;;5014589;28;20444;-64
2022/03/28 11:35:59;;;;;;;10.27;7.70;;;11.20;99.90;;;;;;5032659;28;20056;-65
2022/03/28 11:38:27;;;;;;;11.52;7.97;;;11.10;99.90;;;;;;5010844;28;20058;-64
2022/03/28 11:40:54;;;;;;;13.55;9.20;;;11.00;99.90;;;;;;5008642;28;20046;-65
2022/03/28 11:43:30;;;;;;;9.90;8.15;;;10.90;99.90;;;;;;5027006;28;20101;-64
2022/03/28 11:45:57;;;;;;;14.13;7.95;;;11.00;99.90;;;;;;5047887;28;20057;-64
2022/03/28 11:48:23;;;;;;;10.88;8.65;;;10.80;99.90;;;;;;5014879;28;20050;-64
2022/03/28 11:50:50;;;;;;;11.18;8.30;;;10.90;99.90;;;;;;4997420;28;20398;-64
2022/03/28 11:53:18;;;;;;;11.30;8.25;;;10.90;99.90;;;;;;5030300;28;20061;-65
2022/03/28 11:55:49;;;;;;;16.15;9.00;;;11.20;99.90;;;;;;5013954;28;20057;-65
2022/03/28 11:58:15;;;;;;;12.20;8.68;;;11.40;99.90;;;;;;4999984;28;20417;-63
2022/03/28 12:00:48;;;;;;;10.98;8.80;;;11.60;99.90;;;;;;5017236;28;20473;-64
2022/03/28 12:03:15;;;;;;;10.73;9.00;;;11.70;99.90;;;;;;5016344;28;20049;-65
2022/03/28 12:05:44;;;;;;;11.40;8.93;;;11.60;99.90;;;;;;5032992;28;20469;-64
2022/03/28 12:08:14;;;;;;;14.25;9.80;;;11.60;99.90;;;;;;5020974;28;20053;-64
2022/03/28 12:10:42;;;;;;;12.40;9.15;;;11.40;99.90;;;;;;5013105;28;20061;-65
2022/03/28 12:13:09;;;;;;;11.30;8.95;;;11.40;99.90;;;;;;5021859;28;20054;-65
2022/03/28 12:15:38;;;;;;;11.80;9.98;;;11.30;99.90;;;;;;5017353;28;20050;-65
2022/03/28 12:18:06;;;;;;;13.68;8.98;;;11.40;99.90;;;;;;5034305;28;20057;-64
2022/03/28 12:20:34;;;;;;;12.48;9.45;;;11.60;99.90;;;;;;5016497;28;20083;-65
2022/03/28 12:23:03;;;;;;;13.45;9.40;;;11.60;99.90;;;;;;5017787;28;20125;-64
2022/03/28 12:25:35;;;;;;;32.67;11.02;;;11.70;99.90;;;;;;5032973;28;20107;-64
2022/03/28 12:28:03;;;;;;;13.33;8.63;;;11.70;99.90;;;;;;5017235;28;20099;-64
2022/03/28 12:30:35;;;;;;;16.48;9.38;;;11.70;99.90;;;;;;4999449;28;20535;-65
2022/03/28 12:33:14;;;;;;;12.65;9.38;;;11.50;99.90;;;;;;5026831;28;20382;-64
2022/03/28 12:35:52;;;;;;;13.15;9.38;;;11.60;99.90;;;;;;5016749;28;20053;-65
2022/03/28 12:38:23;;;;;;;13.10;10.27;;;11.70;99.90;;;;;;5033080;28;20448;-65
2022/03/28 12:40:55;;;;;;;12.73;9.33;;;11.70;99.90;;;;;;5033814;28;20057;-66
2022/03/28 12:43:23;;;;;;;12.98;10.50;;;11.60;99.90;;;;;;5034165;28;20061;-64
2022/03/28 12:45:52;;;;;;;13.93;9.88;;;11.60;99.90;;;;;;5034185;28;20135;-65
2022/03/28 12:48:18;;;;;;;14.55;9.85;;;11.70;99.90;;;;;;5012046;28;20045;-65
2022/03/28 12:50:54;;;;;;;11.95;10.20;;;11.70;99.90;;;;;;5036137;28;20374;-66